createdAt,value
2019-03-10T00:00:53.047Z,1.40
2019-03-10T00:03:21.613Z,1.80
2019-03-10T00:05:50.327Z,3.00
2019-03-10T00:08:19.046Z,1.90
2019-03-10T00:10:47.651Z,2.00
2019-03-10T00:13:16.217Z,2.30
2019-03-10T00:15:44.835Z,1.80
2019-03-10T00:18:13.347Z,1.77
2019-03-10T00:20:41.872Z,2.23
2019-03-10T00:23:10.516Z,1.50
2019-03-10T00:25:38.979Z,1.90
2019-03-10T00:28:07.625Z,1.73
2019-03-10T00:30:36.210Z,2.00
2019-03-10T00:33:04.699Z,1.47
2019-03-10T00:35:33.310Z,2.17
2019-03-10T00:38:01.888Z,2.03
2019-03-10T00:41:02.185Z,1.80
2019-03-10T00:43:50.292Z,1.90
2019-03-10T00:46:27.693Z,1.50
2019-03-10T00:49:27.936Z,1.77
2019-03-10T00:52:02.556Z,1.90
2019-03-10T00:54:31.019Z,2.10
2019-03-10T00:56:59.684Z,1.90
2019-03-10T00:59:28.311Z,1.70
2019-03-10T01:01:57.001Z,2.10
2019-03-10T01:04:25.522Z,1.80
2019-03-10T01:06:54.359Z,1.70
2019-03-10T01:09:22.989Z,1.60
2019-03-10T01:11:51.709Z,2.00
2019-03-10T01:14:20.217Z,2.00
2019-03-10T01:16:48.752Z,2.10
2019-03-10T01:19:18.572Z,2.90
2019-03-10T01:21:48.694Z,2.20
2019-03-10T01:24:17.162Z,2.13
2019-03-10T01:26:45.711Z,1.80
2019-03-10T01:29:14.275Z,1.80
2019-03-10T01:32:20.885Z,2.00
2019-03-10T01:35:01.161Z,2.23
2019-03-10T01:37:29.714Z,1.77
2019-03-10T01:39:58.179Z,2.13
2019-03-10T01:42:26.747Z,1.80
2019-03-10T01:44:55.367Z,1.83
2019-03-10T01:47:23.930Z,2.00
2019-03-10T01:49:52.528Z,2.50
2019-03-10T01:52:21.096Z,2.63
2019-03-10T01:54:49.807Z,2.23
2019-03-10T01:57:18.328Z,3.60
2019-03-10T01:59:47.052Z,2.33
2019-03-10T02:02:24.923Z,1.90
2019-03-10T02:05:05.977Z,2.00
2019-03-10T02:07:34.556Z,1.70
2019-03-10T02:10:04.660Z,2.10
2019-03-10T02:12:33.194Z,1.97
2019-03-10T02:15:01.782Z,1.93
2019-03-10T02:17:30.346Z,1.90
2019-03-10T02:19:58.908Z,1.90
2019-03-10T02:22:27.496Z,2.07
2019-03-10T02:24:56.062Z,1.77
2019-03-10T02:27:24.604Z,1.70
2019-03-10T02:29:53.175Z,1.53
2019-03-10T02:32:21.660Z,1.50
2019-03-10T02:34:50.252Z,1.97
2019-03-10T02:37:18.792Z,1.90
2019-03-10T02:39:47.368Z,1.87
2019-03-10T02:42:15.978Z,1.63
2019-03-10T02:44:44.565Z,1.93
2019-03-10T02:47:13.121Z,2.00
2019-03-10T02:49:41.657Z,2.10
2019-03-10T02:52:10.172Z,1.83
2019-03-10T02:54:38.683Z,1.80
2019-03-10T02:57:07.226Z,2.93
2019-03-10T02:59:35.750Z,1.90
2019-03-10T03:02:05.135Z,1.70
2019-03-10T03:04:34.784Z,2.10
2019-03-10T03:07:03.289Z,2.00
2019-03-10T03:09:31.857Z,2.17
2019-03-10T03:12:00.458Z,2.83
2019-03-10T03:14:29.114Z,2.40
2019-03-10T03:16:57.796Z,2.03
2019-03-10T03:19:26.467Z,2.10
2019-03-10T03:21:55.011Z,2.27
2019-03-10T03:24:23.504Z,2.67
2019-03-10T03:26:52.086Z,2.70
2019-03-10T03:29:20.643Z,2.30
2019-03-10T03:31:49.147Z,2.90
2019-03-10T03:34:17.803Z,3.20
2019-03-10T03:36:46.260Z,2.97
2019-03-10T03:39:20.652Z,3.13
2019-03-10T03:41:49.217Z,2.77
2019-03-10T03:44:17.785Z,3.17
2019-03-10T03:46:46.373Z,3.00
2019-03-10T03:49:14.913Z,3.40
2019-03-10T03:51:43.510Z,3.40
2019-03-10T03:54:15.790Z,3.40
2019-03-10T03:56:47.564Z,3.03
2019-03-10T03:59:16.157Z,2.97
2019-03-10T04:01:58.448Z,2.40
2019-03-10T04:04:27.034Z,3.00
2019-03-10T04:06:55.656Z,2.53
2019-03-10T04:09:24.228Z,2.90
2019-03-10T04:11:52.791Z,3.27
2019-03-10T04:14:21.791Z,5.80
2019-03-10T04:16:50.260Z,3.10
2019-03-10T04:19:18.849Z,3.33
2019-03-10T04:21:47.414Z,2.37
2019-03-10T04:24:15.979Z,3.20
2019-03-10T04:26:44.522Z,2.57
2019-03-10T04:29:13.092Z,2.30
2019-03-10T04:31:41.585Z,2.40
2019-03-10T04:34:10.096Z,2.63
2019-03-10T04:36:38.675Z,2.60
2019-03-10T04:39:07.289Z,2.20
2019-03-10T04:41:35.757Z,2.40
2019-03-10T04:44:04.411Z,3.10
2019-03-10T04:46:32.875Z,2.47
2019-03-10T04:49:01.446Z,2.70
2019-03-10T04:51:30.024Z,2.60
2019-03-10T04:53:58.563Z,1.93
2019-03-10T04:56:28.770Z,1.70
2019-03-10T04:58:57.354Z,1.90
2019-03-10T05:01:25.859Z,1.97
2019-03-10T05:03:54.407Z,3.03
2019-03-10T05:06:23.130Z,2.10
2019-03-10T05:08:51.721Z,1.53
2019-03-10T05:11:20.272Z,1.43
2019-03-10T05:13:48.817Z,1.87
2019-03-10T05:16:17.316Z,2.17
2019-03-10T05:18:45.810Z,1.70
2019-03-10T05:21:14.319Z,1.70
2019-03-10T05:23:42.908Z,1.80
2019-03-10T05:26:11.430Z,1.47
2019-03-10T05:28:42.644Z,2.70
2019-03-10T05:31:11.205Z,1.87
2019-03-10T05:33:39.692Z,1.50
2019-03-10T05:36:08.361Z,1.27
2019-03-10T05:38:37.005Z,1.90
2019-03-10T05:41:08.461Z,1.33
2019-03-10T05:43:41.078Z,1.40
2019-03-10T05:46:09.938Z,1.10
2019-03-10T05:48:38.517Z,1.10
2019-03-10T05:51:07.085Z,1.77
2019-03-10T05:53:36.984Z,1.07
2019-03-10T05:56:06.328Z,1.97
2019-03-10T05:58:35.416Z,1.40
2019-03-10T06:01:06.091Z,3.00
2019-03-10T06:03:34.602Z,1.00
2019-03-10T06:06:03.108Z,2.27
2019-03-10T06:08:31.655Z,1.70
2019-03-10T06:11:00.203Z,7.80
2019-03-10T06:13:29.401Z,1.23
2019-03-10T06:15:58.019Z,0.97
2019-03-10T06:18:26.618Z,1.37
2019-03-10T06:20:55.167Z,1.20
2019-03-10T06:23:23.714Z,1.00
2019-03-10T06:25:53.220Z,1.80
2019-03-10T06:28:21.733Z,1.00
2019-03-10T06:30:50.198Z,1.00
2019-03-10T06:33:18.709Z,1.10
2019-03-10T06:35:47.386Z,1.00
2019-03-10T06:38:16.656Z,5.60
2019-03-10T06:40:45.234Z,1.00
2019-03-10T06:43:14.643Z,1.00
2019-03-10T06:45:43.922Z,1.20
2019-03-10T06:48:12.383Z,1.10
2019-03-10T06:50:40.909Z,1.13
2019-03-10T06:53:09.479Z,1.10
2019-03-10T06:55:38.046Z,1.20
2019-03-10T06:58:06.699Z,1.30
2019-03-10T07:00:35.275Z,1.20
2019-03-10T07:03:03.996Z,1.00
2019-03-10T07:05:33.114Z,1.10
2019-03-10T07:08:01.668Z,1.20
2019-03-10T07:10:30.255Z,1.50
2019-03-10T07:13:00.010Z,1.10
2019-03-10T07:15:31.171Z,1.50
2019-03-10T07:17:59.744Z,1.20
2019-03-10T07:20:29.427Z,1.30
2019-03-10T07:22:59.502Z,1.50
2019-03-10T07:25:28.063Z,1.63
2019-03-10T07:28:10.558Z,1.87
2019-03-10T07:30:43.442Z,1.77
2019-03-10T07:33:16.699Z,3.20
2019-03-10T07:36:01.969Z,1.97
2019-03-10T07:38:47.244Z,1.80
2019-03-10T07:41:17.485Z,1.80
2019-03-10T07:44:03.447Z,1.90
2019-03-10T07:46:39.383Z,1.70
2019-03-10T07:49:09.528Z,1.83
2019-03-10T07:51:47.101Z,2.40
2019-03-10T07:54:23.439Z,2.23
2019-03-10T07:56:53.587Z,2.10
2019-03-10T07:59:42.718Z,1.87
2019-03-10T08:02:15.761Z,2.10
2019-03-10T08:04:51.810Z,2.00
2019-03-10T08:07:32.114Z,3.93
2019-03-10T08:10:11.090Z,2.10
2019-03-10T08:12:43.980Z,1.87
2019-03-10T08:15:14.242Z,1.93
2019-03-10T08:17:47.334Z,1.80
2019-03-10T08:20:18.716Z,1.40
2019-03-10T08:22:49.495Z,1.70
2019-03-10T08:25:19.742Z,1.30
2019-03-10T08:28:02.622Z,1.90
2019-03-10T08:30:41.990Z,1.50
2019-03-10T08:33:28.410Z,1.40
2019-03-10T08:36:04.625Z,1.20
2019-03-10T08:38:34.899Z,1.10
2019-03-10T08:41:17.068Z,1.57
2019-03-10T08:44:04.685Z,1.20
2019-03-10T08:46:52.345Z,1.50
2019-03-10T08:52:23.364Z,1.90
2019-03-10T08:55:00.602Z,1.83
2019-03-10T08:57:41.371Z,1.17
2019-03-10T09:00:16.612Z,1.13
2019-03-10T09:03:03.164Z,1.10
2019-03-10T09:05:33.395Z,0.90
2019-03-10T09:08:09.221Z,1.20
2019-03-10T09:10:48.463Z,1.13
2019-03-10T09:13:24.573Z,1.00
2019-03-10T09:16:06.838Z,2.00
2019-03-10T09:18:49.784Z,1.00
2019-03-10T09:21:46.768Z,1.07
2019-03-10T09:24:18.577Z,1.20
2019-03-10T09:30:06.459Z,0.93
2019-03-10T09:32:36.817Z,1.17
2019-03-10T09:35:13.742Z,1.00
2019-03-10T09:37:52.436Z,1.10
2019-03-10T09:40:30.665Z,1.10
2019-03-10T09:43:06.399Z,1.10
2019-03-10T09:46:18.975Z,1.13
2019-03-10T09:48:30.652Z,0.97
2019-03-10T09:51:02.538Z,1.07
2019-03-10T09:53:51.586Z,0.90
2019-03-10T09:56:55.661Z,0.87
2019-03-10T09:59:36.331Z,0.83
2019-03-10T10:02:18.313Z,1.00
2019-03-10T10:04:55.700Z,0.90
2019-03-10T10:07:31.863Z,1.00
2019-03-10T10:10:02.156Z,1.00
2019-03-10T10:12:38.085Z,1.00
2019-03-10T10:15:28.076Z,1.17
2019-03-10T10:18:06.231Z,1.00
2019-03-10T10:20:36.917Z,0.80
2019-03-10T10:23:10.034Z,1.20
2019-03-10T10:25:43.012Z,0.90
2019-03-10T10:28:20.364Z,1.00
2019-03-10T10:30:53.158Z,1.00
2019-03-10T10:33:27.076Z,1.27
2019-03-10T10:36:12.914Z,1.63
2019-03-10T10:38:59.451Z,1.00
2019-03-10T10:41:39.943Z,1.30
2019-03-10T10:44:21.919Z,1.00
2019-03-10T10:47:08.553Z,1.17
2019-03-10T10:49:55.473Z,1.33
2019-03-10T10:52:28.585Z,1.00
2019-03-10T10:55:08.350Z,1.20
2019-03-10T10:57:44.577Z,1.10
2019-03-10T11:00:25.812Z,0.87
2019-03-10T11:03:03.403Z,1.20
2019-03-10T11:05:33.578Z,1.10
2019-03-10T11:08:14.199Z,1.10
2019-03-10T11:11:03.136Z,1.30
2019-03-10T11:13:33.427Z,1.00
2019-03-10T11:16:11.157Z,1.10
2019-03-10T11:18:42.040Z,1.40
2019-03-10T11:21:17.635Z,1.20
2019-03-10T11:23:50.655Z,1.10
2019-03-10T11:26:33.641Z,1.57
2019-03-10T11:29:05.099Z,1.30
2019-03-10T11:32:05.827Z,1.20
2019-03-10T11:34:38.923Z,1.50
2019-03-10T11:37:12.207Z,1.50
2019-03-10T11:39:45.216Z,1.50
2019-03-10T11:42:15.523Z,1.60
2019-03-10T11:45:03.317Z,1.90
2019-03-10T11:47:41.203Z,1.83
2019-03-10T11:50:26.972Z,1.53
2019-03-10T11:53:00.269Z,1.43
2019-03-10T11:55:33.421Z,1.50
2019-03-10T11:58:07.842Z,1.20
2019-03-10T12:00:41.622Z,1.20
2019-03-10T12:03:31.469Z,1.20
2019-03-10T12:06:13.390Z,1.40
2019-03-10T12:09:05.116Z,1.57
2019-03-10T12:11:33.829Z,1.40
2019-03-10T12:14:06.879Z,1.50
2019-03-10T12:16:37.557Z,1.30
2019-03-10T12:19:06.239Z,1.47
2019-03-10T12:21:36.268Z,1.73
2019-03-10T12:24:05.538Z,1.40
2019-03-10T12:26:37.615Z,1.53
2019-03-10T12:29:08.214Z,1.40
2019-03-10T12:31:39.791Z,1.70
2019-03-10T12:34:18.216Z,1.70
2019-03-10T12:36:46.827Z,1.50
2019-03-10T12:39:21.017Z,2.00
2019-03-10T12:41:58.431Z,1.87
2019-03-10T12:44:33.754Z,1.33
2019-03-10T12:47:02.303Z,1.80
2019-03-10T12:49:30.916Z,2.50
2019-03-10T12:51:59.484Z,3.10
2019-03-10T12:54:27.965Z,3.77
2019-03-10T12:56:56.565Z,3.90
2019-03-10T12:59:25.109Z,3.83
2019-03-10T13:01:53.726Z,3.73
2019-03-10T13:04:22.393Z,3.47
2019-03-10T13:06:51.055Z,3.63
2019-03-10T13:09:19.688Z,3.00
2019-03-10T13:11:48.192Z,3.40
2019-03-10T13:14:16.776Z,3.40
2019-03-10T13:16:45.332Z,3.17
2019-03-10T13:19:14.081Z,3.10
2019-03-10T13:21:42.628Z,3.17
2019-03-10T13:24:11.244Z,3.33
2019-03-10T13:26:41.523Z,3.10
2019-03-10T13:29:10.960Z,3.13
2019-03-10T13:31:39.542Z,3.00
2019-03-10T13:34:08.177Z,3.53
2019-03-10T13:36:36.733Z,3.10
2019-03-10T13:39:06.856Z,2.80
2019-03-10T13:41:35.362Z,3.30
2019-03-10T13:44:04.361Z,2.80
2019-03-10T13:46:32.970Z,2.33
2019-03-10T13:49:01.631Z,2.67
2019-03-10T13:51:30.166Z,3.03
2019-03-10T13:53:58.684Z,2.47
2019-03-10T13:56:27.580Z,2.43
2019-03-10T13:58:56.204Z,2.07
2019-03-10T14:01:24.739Z,2.10
2019-03-10T14:03:53.407Z,2.50
2019-03-10T14:06:22.032Z,2.30
2019-03-10T14:08:50.586Z,2.20
2019-03-10T14:11:19.060Z,2.10
2019-03-10T14:13:47.608Z,2.50
2019-03-10T14:16:16.197Z,2.33
2019-03-10T14:18:44.810Z,2.10
2019-03-10T14:21:13.377Z,2.30
2019-03-10T14:23:41.941Z,2.30
2019-03-10T14:26:10.513Z,2.50
2019-03-10T14:28:39.103Z,2.50
2019-03-10T14:31:07.738Z,1.80
2019-03-10T14:33:36.254Z,2.10
2019-03-10T14:36:04.930Z,1.80
2019-03-10T14:38:33.711Z,1.90
2019-03-10T14:41:02.257Z,1.80
2019-03-10T14:43:31.183Z,2.30
2019-03-10T14:45:59.681Z,2.20
2019-03-10T14:48:28.258Z,2.00
2019-03-10T14:50:56.901Z,1.97
2019-03-10T14:53:25.560Z,1.60
2019-03-10T14:55:54.147Z,2.00
2019-03-10T14:58:22.700Z,1.97
2019-03-10T15:00:51.311Z,1.60
2019-03-10T15:03:19.886Z,2.07
2019-03-10T15:05:48.391Z,1.43
2019-03-10T15:08:16.908Z,1.73
2019-03-10T15:10:45.497Z,2.13
2019-03-10T15:13:14.068Z,1.70
2019-03-10T15:15:42.575Z,1.60
2019-03-10T15:18:11.957Z,1.90
2019-03-10T15:20:40.424Z,1.97
2019-03-10T15:23:08.987Z,2.20
2019-03-10T15:25:37.594Z,2.07
2019-03-10T15:28:06.165Z,1.73
2019-03-10T15:30:34.701Z,1.70
2019-03-10T15:33:03.394Z,1.77
2019-03-10T15:35:31.991Z,1.57
2019-03-10T15:38:00.536Z,1.70
2019-03-10T15:40:29.089Z,1.30
2019-03-10T15:42:57.649Z,1.50
2019-03-10T15:45:27.923Z,2.07
2019-03-10T15:47:56.465Z,1.40
2019-03-10T15:50:36.812Z,1.43
2019-03-10T15:53:05.535Z,1.30
2019-03-10T15:55:34.128Z,1.67
2019-03-10T15:58:04.118Z,1.30
2019-03-10T16:00:32.901Z,1.30
2019-03-10T16:03:01.485Z,1.40
2019-03-10T16:05:30.133Z,1.30
2019-03-10T16:07:58.652Z,1.37
2019-03-10T16:10:27.232Z,1.97
2019-03-10T16:12:55.821Z,1.50
2019-03-10T16:15:29.454Z,1.50
2019-03-10T16:17:58.098Z,1.27
2019-03-10T16:20:26.631Z,1.43
2019-03-10T16:22:55.620Z,2.50
2019-03-10T16:25:24.248Z,1.87
2019-03-10T16:27:52.909Z,1.73
2019-03-10T16:30:27.457Z,2.13
2019-03-10T16:32:56.174Z,2.50
2019-03-10T16:35:24.821Z,3.80
2019-03-10T16:37:53.455Z,1.73
2019-03-10T16:40:22.162Z,1.87
2019-03-10T16:42:50.896Z,2.10
2019-03-10T16:45:21.545Z,4.13
2019-03-10T16:47:50.130Z,1.70
2019-03-10T16:50:21.037Z,2.00
2019-03-10T16:52:50.908Z,2.23
2019-03-10T16:55:19.459Z,5.87
2019-03-10T16:57:48.094Z,2.07
2019-03-10T17:00:19.546Z,1.90
2019-03-10T17:02:48.469Z,3.10
2019-03-10T17:05:18.604Z,2.70
2019-03-10T17:07:47.618Z,1.70
2019-03-10T17:10:18.211Z,3.23
2019-03-10T17:12:46.736Z,15.27
2019-03-10T17:15:19.402Z,5.10
2019-03-10T17:17:48.083Z,4.87
2019-03-10T17:20:17.571Z,2.23
2019-03-10T17:22:46.161Z,2.00
2019-03-10T17:25:15.545Z,1.53
2019-03-10T17:27:44.209Z,1.90
2019-03-10T17:30:23.637Z,5.10
2019-03-10T17:32:52.284Z,3.40
2019-03-10T17:35:21.683Z,5.87
2019-03-10T17:37:50.226Z,1.60
2019-03-10T17:40:19.945Z,2.67
2019-03-10T17:42:48.579Z,3.13
2019-03-10T17:45:18.750Z,5.60
2019-03-10T17:47:47.417Z,3.63
2019-03-10T17:50:17.556Z,2.80
2019-03-10T17:52:46.569Z,4.67
2019-03-10T17:55:16.383Z,3.10
2019-03-10T17:57:44.936Z,3.53
2019-03-10T18:00:19.140Z,2.50
2019-03-10T18:02:47.639Z,2.47
2019-03-10T18:05:16.279Z,4.17
2019-03-10T18:07:44.842Z,4.20
2019-03-10T18:10:19.860Z,3.83
2019-03-10T18:12:48.468Z,1.90
2019-03-10T18:15:18.180Z,5.00
2019-03-10T18:17:46.902Z,2.80
2019-03-10T18:20:24.792Z,3.67
2019-03-10T18:22:53.559Z,3.27
2019-03-10T18:25:22.105Z,2.00
2019-03-10T18:27:50.669Z,4.33
2019-03-10T18:30:27.168Z,3.63
2019-03-10T18:32:55.764Z,2.87
2019-03-10T18:35:24.302Z,3.63
2019-03-10T18:37:52.893Z,2.97
2019-03-10T18:40:23.386Z,2.33
2019-03-10T18:42:52.047Z,4.40
2019-03-10T18:45:20.831Z,4.70
2019-03-10T18:47:49.478Z,1.90
2019-03-10T18:50:19.518Z,2.70
2019-03-10T18:52:48.373Z,6.30
2019-03-10T18:55:18.102Z,5.30
2019-03-10T18:57:46.709Z,2.27
2019-03-10T19:00:28.893Z,3.63
2019-03-10T19:02:57.456Z,3.80
2019-03-10T19:05:26.011Z,10.40
2019-03-10T19:07:54.711Z,4.57
2019-03-10T19:10:23.536Z,7.30
2019-03-10T19:12:52.046Z,8.10
2019-03-10T19:15:27.707Z,10.53
2019-03-10T19:17:56.201Z,14.70
2019-03-10T19:20:24.787Z,15.30
2019-03-10T19:22:53.363Z,13.77
2019-03-10T19:25:21.833Z,16.53
2019-03-10T19:27:50.327Z,16.20
2019-03-10T19:30:22.675Z,12.00
2019-03-10T19:32:51.404Z,6.97
2019-03-10T19:35:20.096Z,6.83
2019-03-10T19:37:48.715Z,5.13
2019-03-10T19:40:19.475Z,6.00
2019-03-10T19:42:48.066Z,8.17
2019-03-10T19:45:21.665Z,10.80
2019-03-10T19:47:50.296Z,7.10
2019-03-10T19:50:28.017Z,5.10
2019-03-10T19:52:56.828Z,8.80
2019-03-10T19:55:25.425Z,7.30
2019-03-10T19:57:54.008Z,5.93
2019-03-10T20:00:22.912Z,7.90
2019-03-10T20:02:51.561Z,7.90
2019-03-10T20:05:20.168Z,5.50
2019-03-10T20:07:48.703Z,4.00
2019-03-10T20:10:18.223Z,8.73
2019-03-10T20:12:46.887Z,5.77
2019-03-10T20:15:17.227Z,6.43
2019-03-10T20:17:45.835Z,8.47
2019-03-10T20:20:20.410Z,8.53
2019-03-10T20:22:49.026Z,3.13
2019-03-10T20:25:17.738Z,6.40
2019-03-10T20:27:46.198Z,4.20
2019-03-10T20:30:20.144Z,5.30
2019-03-10T20:33:08.115Z,5.40
2019-03-10T20:35:36.692Z,9.03
2019-03-10T20:38:25.025Z,6.67
2019-03-10T20:40:53.533Z,10.33
2019-03-10T20:43:22.071Z,6.33
2019-03-10T20:45:50.643Z,6.03
2019-03-10T20:48:19.199Z,5.53
2019-03-10T20:53:36.536Z,6.57
2019-03-10T20:56:07.556Z,5.00
2019-03-10T20:58:35.467Z,2.83
2019-03-10T21:01:04.188Z,4.30
2019-03-10T21:03:32.764Z,4.10
2019-03-10T21:06:01.301Z,6.00
2019-03-10T21:08:29.815Z,3.30
2019-03-10T21:10:58.321Z,2.67
2019-03-10T21:13:26.961Z,5.23
2019-03-10T21:15:55.430Z,2.97
2019-03-10T21:18:23.914Z,2.43
2019-03-10T21:20:52.618Z,2.17
2019-03-10T21:23:22.328Z,1.77
2019-03-10T21:25:52.457Z,1.70
2019-03-10T21:28:22.175Z,2.20
2019-03-10T21:30:53.156Z,5.55
2019-03-10T21:33:22.032Z,2.08
2019-03-10T21:35:51.516Z,2.45
2019-03-10T21:38:20.637Z,1.85
2019-03-10T21:40:50.452Z,7.05
2019-03-10T21:43:20.933Z,3.95
2019-03-10T21:45:52.013Z,5.95
2019-03-10T21:48:20.863Z,2.30
2019-03-10T21:50:50.323Z,2.50
2019-03-10T21:53:20.298Z,7.03
2019-03-10T21:55:50.586Z,2.55
2019-03-10T21:58:20.046Z,3.52
2019-03-10T22:00:48.757Z,6.20
2019-03-10T22:03:18.173Z,11.33
2019-03-10T22:05:47.032Z,4.87
2019-03-10T22:08:17.209Z,3.00
2019-03-10T22:10:46.406Z,7.92
2019-03-10T22:13:15.407Z,3.70
2019-03-10T22:15:45.526Z,3.98
2019-03-10T22:18:14.715Z,3.85
2019-03-10T22:20:44.320Z,3.90
2019-03-10T22:23:13.657Z,19.60
2019-03-10T22:25:43.601Z,2.87
2019-03-10T22:28:12.853Z,2.25
2019-03-10T22:30:42.126Z,4.50
2019-03-10T22:33:11.706Z,8.70
2019-03-10T22:35:40.390Z,4.25
2019-03-10T22:38:10.209Z,2.60
2019-03-10T22:40:40.018Z,9.83
2019-03-10T22:43:09.662Z,12.00
2019-03-10T22:45:57.728Z,5.97
2019-03-10T22:48:29.876Z,6.03
2019-03-10T22:50:59.324Z,10.35
2019-03-10T22:53:29.178Z,3.08
2019-03-10T22:55:58.743Z,3.15
2019-03-10T22:58:27.834Z,5.30
2019-03-10T23:00:58.034Z,9.75
2019-03-10T23:03:27.775Z,11.25
2019-03-10T23:05:56.824Z,10.03
2019-03-10T23:08:25.949Z,7.17
2019-03-10T23:10:55.059Z,7.50
2019-03-10T23:13:24.060Z,7.33
2019-03-10T23:15:52.900Z,4.33
2019-03-10T23:18:22.305Z,5.03
2019-03-10T23:20:51.258Z,16.20
2019-03-10T23:23:20.985Z,5.95
2019-03-10T23:25:52.831Z,6.80
2019-03-10T23:28:22.290Z,5.90
2019-03-10T23:30:51.034Z,7.05
2019-03-10T23:33:20.514Z,10.23
2019-03-10T23:35:49.610Z,7.40
2019-03-10T23:38:18.197Z,4.17
2019-03-10T23:40:47.467Z,6.50
2019-03-10T23:43:16.900Z,7.35
2019-03-10T23:45:46.290Z,14.13
2019-03-10T23:48:15.749Z,5.72
2019-03-10T23:50:44.715Z,8.35
2019-03-10T23:53:13.997Z,4.75
2019-03-10T23:55:43.617Z,10.48
2019-03-10T23:58:12.617Z,11.35
